Time,TemperatureF,DewpointF,PressureIn,WindDirection,WindDirectionDegrees,WindSpeedMPH,WindSpeedGustMPH,Humidity,HourlyPrecipIn,Conditions,Clouds,dailyrainin,SoftwareType,DateUTC
2013-02-16 00:03:00,48.5,42.3,30.19,ESE,117,11.5,11.5,79,0.00,OVC,,0.00,WeatherDisplay:10.37,2013-02-16 08:03:00,
2013-02-16 00:08:00,48.5,42.6,30.19,SSE,158,17.3,17.3,80,0.00,OVC,,0.00,WeatherDisplay:10.37,2013-02-16 08:08:00,
2013-02-16 00:13:00,48.4,42.5,30.20,South,173,10.4,10.4,80,0.00,OVC,,0.00,WeatherDisplay:10.37,2013-02-16 08:13:00,
2013-02-16 00:18:00,48.3,42.7,30.19,SE,136,11.5,11.5,81,0.00,OVC,,0.00,WeatherDisplay:10.37,2013-02-16 08:18:00,
2013-02-16 00:23:00,48.2,42.6,30.20,SSE,148,13.8,13.8,81,0.00,OVC,,0.00,WeatherDisplay:10.37,2013-02-16 08:23:00,
2013-02-16 00:28:00,48.2,43.6,30.20,SE,144,11.5,11.5,84,0.00,OVC,,0.00,WeatherDisplay:10.37,2013-02-16 08:28:00,
2013-02-16 00:33:00,48.2,42.6,30.20,SSE,164,11.5,11.5,81,0.00,OVC,,0.00,WeatherDisplay:10.37,2013-02-16 08:33:00,
2013-02-16 00:38:00,47.8,42.3,30.20,SSE,161,11.5,11.5,81,0.00,OVC,,0.00,WeatherDisplay:10.37,2013-02-16 08:38:00,
2013-02-16 00:43:00,47.5,42.3,30.21,South,174,9.2,9.2,82,0.00,OVC,,0.00,WeatherDisplay:10.37,2013-02-16 08:43:00,
2013-02-16 00:48:00,47.3,42.1,30.21,SSE,148,8.1,8.1,82,0.00,OVC,,0.00,WeatherDisplay:10.37,2013-02-16 08:48:00,
2013-02-16 00:53:00,47.1,41.9,30.21,SE,146,11.5,11.5,82,0.00,OVC,,0.00,WeatherDisplay:10.37,2013-02-16 08:53:00,
2013-02-16 00:58:00,47.1,41.9,30.20,SSE,155,10.4,10.4,82,0.00,OVC,,0.00,WeatherDisplay:10.37,2013-02-16 08:58:00,
2013-02-16 01:03:00,47.0,41.8,30.20,SSE,153,11.5,11.5,82,0.00,OVC,,0.00,WeatherDisplay:10.37,2013-02-16 09:03:00,
2013-02-16 01:08:00,47.0,41.5,30.20,South,179,8.1,8.1,81,0.00,OVC,,0.00,WeatherDisplay:10.37,2013-02-16 09:08:00,
2013-02-16 01:13:00,46.9,41.4,30.20,SSE,151,10.4,10.4,81,0.00,OVC,,0.00,WeatherDisplay:10.37,2013-02-16 09:13:00,
2013-02-16 01:18:00,46.7,41.5,30.20,South,169,5.8,5.8,82,0.00,OVC,,0.00,WeatherDisplay:10.37,2013-02-16 09:18:00,
2013-02-16 01:23:00,46.3,41.1,30.21,SSE,163,9.2,9.2,82,0.00,OVC,,0.00,WeatherDisplay:10.37,2013-02-16 09:23:00,
2013-02-16 01:28:00,46.1,41.2,30.21,SSE,164,6.9,6.9,83,0.00,OVC,,0.00,WeatherDisplay:10.37,2013-02-16 09:28:00,
2013-02-16 01:33:00,45.8,40.9,30.21,SSE,151,3.5,3.5,83,0.00,OVC,,0.00,WeatherDisplay:10.37,2013-02-16 09:33:00,
2013-02-16 01:38:00,45.8,41.2,30.20,SSE,150,10.4,10.4,84,0.00,OVC,,0.00,WeatherDisplay:10.37,2013-02-16 09:38:00,
2013-02-16 01:43:00,46.0,41.4,30.20,SE,140,9.2,9.2,84,0.00,OVC,,0.00,WeatherDisplay:10.37,2013-02-16 09:43:00,
2013-02-16 01:48:00,46.2,41.6,30.20,SSE,149,11.5,11.5,84,0.00,OVC,,0.00,WeatherDisplay:10.37,2013-02-16 09:48:00,
2013-02-16 01:53:00,46.4,41.8,30.20,South,184,9.2,9.2,84,0.00,OVC,,0.00,WeatherDisplay:10.37,2013-02-16 09:53:00,
2013-02-16 01:58:00,46.5,41.9,30.20,South,171,4.6,4.6,84,0.00,OVC,,0.00,WeatherDisplay:10.37,2013-02-16 09:58:00,
2013-02-16 02:03:00,46.1,41.5,30.20,South,170,4.6,4.6,84,0.00,OVC,,0.00,WeatherDisplay:10.37,2013-02-16 10:03:00,
2013-02-16 02:08:00,46.1,41.5,30.20,SSE,150,5.0,5.0,84,0.00,OVC,,0.00,WeatherDisplay:10.37,2013-02-16 10:08:00,
2013-02-16 02:13:00,46.0,41.4,30.20,SSE,165,10.4,10.4,84,0.00,OVC,,0.00,WeatherDisplay:10.37,2013-02-16 10:13:00,
2013-02-16 02:18:00,46.1,41.5,30.20,SE,142,11.5,11.5,84,0.00,OVC,,0.00,WeatherDisplay:10.37,2013-02-16 10:18:00,
2013-02-16 02:23:00,46.2,41.6,30.20,South,170,4.6,4.6,84,0.00,OVC,,0.00,WeatherDisplay:10.37,2013-02-16 10:23:00,
2013-02-16 02:28:00,46.2,41.6,30.20,SSE,165,9.2,9.2,84,0.00,OVC,,0.00,WeatherDisplay:10.37,2013-02-16 10:28:00,
2013-02-16 02:33:00,46.1,41.5,30.20,SSE,161,9.2,9.2,84,0.00,OVC,,0.00,WeatherDisplay:10.37,2013-02-16 10:33:00,
2013-02-16 02:38:00,45.9,41.6,30.20,SSE,150,10.4,10.4,85,0.00,OVC,,0.00,WeatherDisplay:10.37,2013-02-16 10:38:00,
2013-02-16 02:43:00,45.7,41.4,30.20,SSE,154,3.5,3.5,85,0.00,OVC,,0.00,WeatherDisplay:10.37,2013-02-16 10:43:00,
2013-02-16 02:48:00,45.5,41.6,30.20,SSE,150,6.9,6.9,86,0.00,OVC,,0.00,WeatherDisplay:10.37,2013-02-16 10:48:00,
2013-02-16 02:53:00,45.3,41.4,30.20,SSE,159,6.9,6.9,86,0.00,OVC,,0.00,WeatherDisplay:10.37,2013-02-16 10:53:00,
2013-02-16 02:58:00,45.1,41.5,30.20,SSW,197,3.5,3.5,87,0.00,OVC,,0.00,WeatherDisplay:10.37,2013-02-16 10:58:00,
2013-02-16 03:03:00,44.9,41.0,30.20,WNW,297,1.1,1.1,86,0.00,OVC,,0.00,WeatherDisplay:10.37,2013-02-16 11:03:00,
2013-02-16 03:08:00,44.3,40.4,30.20,WNW,297,2.3,2.3,86,0.00,OVC,,0.00,WeatherDisplay:10.37,2013-02-16 11:08:00,
2013-02-16 03:13:00,44.1,40.5,30.19,SSE,150,4.6,4.6,87,0.00,OVC,,0.00,WeatherDisplay:10.37,2013-02-16 11:13:00,
2013-02-16 03:18:00,44.0,41.0,30.19,SSE,161,3.5,3.5,89,0.00,OVC,,0.00,WeatherDisplay:10.37,2013-02-16 11:18:00,
2013-02-16 03:23:00,43.8,40.8,30.19,South,173,3.5,3.5,89,0.00,OVC,,0.00,WeatherDisplay:10.37,2013-02-16 11:23:00,
2013-02-16 03:28:00,43.8,40.8,30.19,South,171,3.0,3.0,89,0.00,OVC,,0.00,WeatherDisplay:10.37,2013-02-16 11:28:00,
2013-02-16 03:33:00,43.8,41.1,30.19,SSE,165,5.8,5.8,90,0.00,OVC,,0.00,WeatherDisplay:10.37,2013-02-16 11:33:00,
2013-02-16 03:38:00,44.0,41.5,30.20,SSW,193,5.8,5.8,91,0.00,OVC,,0.00,WeatherDisplay:10.37,2013-02-16 11:38:00,
2013-02-16 03:43:00,44.0,41.5,30.20,South,184,3.5,3.5,91,0.00,OVC,,0.00,WeatherDisplay:10.37,2013-02-16 11:43:00,
2013-02-16 03:48:00,43.8,41.1,30.20,SW,229,2.3,2.3,90,0.00,OVC,,0.00,WeatherDisplay:10.37,2013-02-16 11:48:00,
2013-02-16 03:53:00,43.2,40.2,30.20,NW,306,3.5,3.5,89,0.00,OVC,,0.00,WeatherDisplay:10.37,2013-02-16 11:53:00,
2013-02-16 03:58:00,42.6,39.6,30.21,NW,310,1.0,1.0,89,0.00,OVC,,0.00,WeatherDisplay:10.37,2013-02-16 11:58:00,
2013-02-16 04:03:00,42.2,39.2,30.21,NW,325,2.3,2.3,89,0.00,OVC,,0.00,WeatherDisplay:10.37,2013-02-16 12:03:00,
2013-02-16 04:08:00,41.8,39.1,30.21,NW,325,0.0,0.0,90,0.00,OVC,,0.00,WeatherDisplay:10.37,2013-02-16 12:08:00,
2013-02-16 04:13:00,41.6,38.9,30.21,NW,325,0.0,0.0,90,0.00,OVC,,0.00,WeatherDisplay:10.37,2013-02-16 12:13:00,
2013-02-16 04:18:00,41.6,38.9,30.21,NW,325,0.0,0.0,90,0.00,OVC,,0.00,WeatherDisplay:10.37,2013-02-16 12:18:00,
2013-02-16 04:23:00,41.6,39.2,30.21,NW,325,1.1,1.1,91,0.00,OVC,,0.00,WeatherDisplay:10.37,2013-02-16 12:23:00,
2013-02-16 04:28:00,41.6,39.2,30.21,NNE,13,2.3,2.3,91,0.00,OVC,,0.00,WeatherDisplay:10.37,2013-02-16 12:28:00,
2013-02-16 04:33:00,41.6,39.2,30.21,NNE,13,0.0,0.0,91,0.00,OVC,,0.00,WeatherDisplay:10.37,2013-02-16 12:33:00,
2013-02-16 04:38:00,41.8,39.6,30.21,NNE,13,0.0,0.0,92,0.00,OVC,,0.00,WeatherDisplay:10.37,2013-02-16 12:38:00,
2013-02-16 04:43:00,41.9,39.7,30.21,NNE,13,0.0,0.0,92,0.00,OVC,,0.00,WeatherDisplay:10.37,2013-02-16 12:43:00,
2013-02-16 04:48:00,42.1,39.9,30.21,NNE,13,0.0,0.0,92,0.00,OVC,,0.00,WeatherDisplay:10.37,2013-02-16 12:48:00,
2013-02-16 04:53:00,42.3,40.1,30.21,NNE,13,0.0,0.0,92,0.00,OVC,,0.00,WeatherDisplay:10.37,2013-02-16 12:53:00,
2013-02-16 04:58:00,42.4,40.2,30.21,NNE,13,0.0,0.0,92,0.00,OVC,,0.00,WeatherDisplay:10.37,2013-02-16 12:58:00,
2013-02-16 05:03:00,42.5,40.3,30.21,NNE,13,0.0,0.0,92,0.00,OVC,,0.00,WeatherDisplay:10.37,2013-02-16 13:03:00,
2013-02-16 05:08:00,42.6,40.4,30.21,NNE,13,0.0,0.0,92,0.00,OVC,,0.00,WeatherDisplay:10.37,2013-02-16 13:08:00,
2013-02-16 05:13:00,42.7,40.5,30.21,NNE,13,1.1,1.1,92,0.00,OVC,,0.00,WeatherDisplay:10.37,2013-02-16 13:13:00,
2013-02-16 05:18:00,42.7,40.5,30.21,NNE,13,0.0,0.0,92,0.00,OVC,,0.00,WeatherDisplay:10.37,2013-02-16 13:18:00,
2013-02-16 05:23:00,42.8,40.6,30.21,NNE,13,0.0,0.0,92,0.00,OVC,,0.00,WeatherDisplay:10.37,2013-02-16 13:23:00,
2013-02-16 05:28:00,42.9,40.7,30.21,WNW,294,3.5,3.5,92,0.00,OVC,,0.00,WeatherDisplay:10.37,2013-02-16 13:28:00,
2013-02-16 05:33:00,43.2,41.0,30.21,WNW,295,0.0,0.0,92,0.00,OVC,,0.00,WeatherDisplay:10.37,2013-02-16 13:33:00,
2013-02-16 05:38:00,43.4,41.2,30.22,NW,317,2.3,2.3,92,0.00,OVC,,0.00,WeatherDisplay:10.37,2013-02-16 13:38:00,
2013-02-16 05:43:00,43.4,41.2,30.21,NW,317,0.0,0.0,92,0.00,OVC,,0.00,WeatherDisplay:10.37,2013-02-16 13:43:00,
2013-02-16 05:48:00,43.5,41.3,30.21,NW,317,2.3,2.3,92,0.00,OVC,,0.00,WeatherDisplay:10.37,2013-02-16 13:48:00,
2013-02-16 05:53:00,43.6,41.4,30.22,NW,317,0.0,0.0,92,0.00,OVC,,0.00,WeatherDisplay:10.37,2013-02-16 13:53:00,
2013-02-16 05:58:00,43.6,41.4,30.22,NW,317,0.0,0.0,92,0.00,OVC,,0.00,WeatherDisplay:10.37,2013-02-16 13:58:00,
2013-02-16 06:03:00,43.6,41.4,30.22,NW,317,0.0,0.0,92,0.00,OVC,,0.00,WeatherDisplay:10.37,2013-02-16 14:03:00,
2013-02-16 06:08:00,43.6,41.4,30.22,NW,317,0.0,0.0,92,0.00,OVC,,0.00,WeatherDisplay:10.37,2013-02-16 14:08:00,
2013-02-16 06:13:00,43.6,41.4,30.22,NW,317,0.0,0.0,92,0.00,OVC,,0.00,WeatherDisplay:10.37,2013-02-16 14:13:00,
2013-02-16 06:18:00,43.6,41.4,30.22,NW,317,0.0,0.0,92,0.00,OVC,,0.00,WeatherDisplay:10.37,2013-02-16 14:18:00,
2013-02-16 06:23:00,43.6,41.4,30.22,NW,317,0.0,0.0,92,0.00,OVC,,0.00,WeatherDisplay:10.37,2013-02-16 14:23:00,
2013-02-16 06:28:00,43.6,41.4,30.22,North,350,2.3,2.3,92,0.00,OVC,,0.00,WeatherDisplay:10.37,2013-02-16 14:28:00,
2013-02-16 06:33:00,43.6,41.4,30.22,North,350,0.0,0.0,92,0.00,OVC,,0.00,WeatherDisplay:10.37,2013-02-16 14:33:00,
2013-02-16 06:38:00,43.6,41.4,30.22,North,350,0.0,0.0,92,0.00,OVC,,0.00,WeatherDisplay:10.37,2013-02-16 14:38:00,
2013-02-16 06:43:00,43.5,41.3,30.22,North,350,0.0,0.0,92,0.00,OVC,,0.00,WeatherDisplay:10.37,2013-02-16 14:43:00,
2013-02-16 06:48:00,43.4,41.2,30.22,North,350,2.0,2.0,92,0.00,OVC,,0.00,WeatherDisplay:10.37,2013-02-16 14:48:00,
2013-02-16 06:53:00,43.4,41.2,30.22,WNW,296,1.1,1.1,92,0.00,OVC,,0.00,WeatherDisplay:10.37,2013-02-16 14:53:00,
2013-02-16 06:58:00,43.4,41.2,30.22,WNW,296,0.0,0.0,92,0.00,OVC,,0.00,WeatherDisplay:10.37,2013-02-16 14:58:00,
2013-02-16 07:03:00,43.4,41.2,30.23,WNW,296,0.0,0.0,92,0.00,OVC,,0.00,WeatherDisplay:10.37,2013-02-16 15:03:00,
2013-02-16 07:08:00,43.4,41.2,30.23,WNW,296,0.0,0.0,92,0.00,OVC,,0.00,WeatherDisplay:10.37,2013-02-16 15:08:00,
2013-02-16 07:13:00,43.5,41.3,30.22,NW,313,0.0,0.0,92,0.00,OVC,,0.00,WeatherDisplay:10.37,2013-02-16 15:13:00,
2013-02-16 07:18:00,43.6,41.4,30.22,NW,313,0.0,0.0,92,0.00,OVC,,0.00,WeatherDisplay:10.37,2013-02-16 15:18:00,
2013-02-16 07:23:00,43.6,41.4,30.23,NW,313,1.1,1.1,92,0.00,OVC,,0.00,WeatherDisplay:10.37,2013-02-16 15:23:00,
2013-02-16 07:28:00,43.6,41.4,30.23,NW,313,0.0,0.0,92,0.00,OVC,,0.00,WeatherDisplay:10.37,2013-02-16 15:28:00,
2013-02-16 07:33:00,43.6,41.4,30.23,NW,313,0.0,0.0,92,0.00,OVC,,0.00,WeatherDisplay:10.37,2013-02-16 15:33:00,
2013-02-16 07:38:00,43.6,41.4,30.23,NW,313,0.0,0.0,92,0.00,OVC,,0.00,WeatherDisplay:10.37,2013-02-16 15:38:00,
2013-02-16 07:43:00,43.5,41.3,30.23,WSW,242,0.0,0.0,92,0.00,OVC,,0.00,WeatherDisplay:10.37,2013-02-16 15:43:00,
2013-02-16 07:48:00,43.4,41.2,30.24,WSW,241,2.3,2.3,92,0.00,OVC,,0.00,WeatherDisplay:10.37,2013-02-16 15:48:00,
2013-02-16 07:53:00,43.2,41.0,30.23,WSW,241,1.1,0.0,92,0.00,OVC,,0.00,WeatherDisplay:10.37,2013-02-16 15:53:00,
2013-02-16 07:58:00,42.9,40.7,30.24,WSW,241,3.5,3.5,92,0.00,OVC,,0.00,WeatherDisplay:10.37,2013-02-16 15:58:00,
2013-02-16 08:03:00,42.5,40.3,30.24,SSW,196,3.5,3.5,92,0.00,OVC,,0.00,WeatherDisplay:10.37,2013-02-16 16:03:00,
2013-02-16 08:08:00,42.1,39.9,30.24,SSE,154,5.0,5.0,92,0.00,OVC,,0.00,WeatherDisplay:10.37,2013-02-16 16:08:00,
2013-02-16 08:13:00,41.6,39.4,30.24,South,175,4.0,4.0,92,0.00,OVC,,0.00,WeatherDisplay:10.37,2013-02-16 16:13:00,
2013-02-16 08:18:00,41.2,39.1,30.25,SSE,166,4.0,4.0,92,0.00,OVC,,0.00,WeatherDisplay:10.37,2013-02-16 16:18:00,
2013-02-16 08:23:00,41.1,39.0,30.25,SSE,148,4.6,4.6,92,0.00,OVC,,0.00,WeatherDisplay:10.37,2013-02-16 16:23:00,
2013-02-16 08:28:00,41.0,39.1,30.25,SSE,148,3.5,3.5,93,0.00,OVC,,0.00,WeatherDisplay:10.37,2013-02-16 16:28:00,
2013-02-16 08:33:00,41.0,41.0,30.25,SSE,148,3.5,3.5,100,0.00,OVC,,0.00,WeatherDisplay:10.37,2013-02-16 16:33:00,
2013-02-16 08:38:00,41.1,39.2,30.25,SSE,148,2.3,2.3,93,0.00,OVC,,0.00,WeatherDisplay:10.37,2013-02-16 16:38:00,
2013-02-16 08:43:00,41.2,39.3,30.25,SSE,148,2.0,2.0,93,0.00,OVC,,0.00,WeatherDisplay:10.37,2013-02-16 16:43:00,
2013-02-16 08:48:00,41.3,39.4,30.25,SSE,155,2.3,2.3,93,0.00,OVC,,0.00,WeatherDisplay:10.37,2013-02-16 16:48:00,
2013-02-16 08:53:00,41.3,39.4,30.25,South,171,4.6,4.6,93,0.00,OVC,,0.00,WeatherDisplay:10.37,2013-02-16 16:53:00,
2013-02-16 08:58:00,41.4,39.5,30.25,South,180,4.0,4.0,93,0.00,OVC,,0.00,WeatherDisplay:10.37,2013-02-16 16:58:00,
2013-02-16 09:03:00,41.4,39.5,30.25,SSE,149,5.8,5.8,93,0.00,OVC,,0.00,WeatherDisplay:10.37,2013-02-16 17:03:00,
2013-02-16 09:08:00,41.4,39.5,30.25,SE,146,3.5,3.5,93,0.00,OVC,,0.00,WeatherDisplay:10.37,2013-02-16 17:08:00,
2013-02-16 09:13:00,41.4,39.5,30.25,SSE,147,2.3,2.3,93,0.00,OVC,,0.00,WeatherDisplay:10.37,2013-02-16 17:13:00,
2013-02-16 09:18:00,41.5,39.9,30.25,SSE,151,3.5,3.5,94,0.00,OVC,,0.00,WeatherDisplay:10.37,2013-02-16 17:18:00,
2013-02-16 09:23:00,41.6,40.0,30.25,SSE,151,2.3,2.3,94,0.00,OVC,,0.00,WeatherDisplay:10.37,2013-02-16 17:23:00,
2013-02-16 09:28:00,41.8,40.2,30.25,SSE,151,3.5,3.5,94,0.00,OVC,,0.00,WeatherDisplay:10.37,2013-02-16 17:28:00,
2013-02-16 09:33:00,42.0,40.4,30.25,SSE,151,3.5,3.5,94,0.00,OVC,,0.00,WeatherDisplay:10.37,2013-02-16 17:33:00,
2013-02-16 09:38:00,42.2,40.6,30.25,SSE,151,2.3,2.3,94,0.00,OVC,,0.00,WeatherDisplay:10.37,2013-02-16 17:38:00,
2013-02-16 09:43:00,42.5,40.9,30.25,SSE,151,3.5,3.5,94,0.00,OVC,,0.00,WeatherDisplay:10.37,2013-02-16 17:43:00,
2013-02-16 09:48:00,42.5,40.9,30.25,South,180,2.3,2.3,94,0.00,OVC,,0.00,WeatherDisplay:10.37,2013-02-16 17:48:00,
2013-02-16 09:53:00,42.6,41.0,30.25,South,170,2.3,2.3,94,0.00,OVC,,0.00,WeatherDisplay:10.37,2013-02-16 17:53:00,
2013-02-16 09:58:00,42.6,41.0,30.25,South,170,2.3,2.3,94,0.00,OVC,,0.00,WeatherDisplay:10.37,2013-02-16 17:58:00,
2013-02-16 10:03:00,42.6,40.7,30.25,South,178,3.5,3.5,93,0.00,OVC,,0.00,WeatherDisplay:10.37,2013-02-16 18:03:00,
2013-02-16 10:08:00,42.6,40.7,30.25,South,178,0.0,0.0,93,0.00,OVC,,0.00,WeatherDisplay:10.37,2013-02-16 18:08:00,
2013-02-16 10:13:00,42.6,40.7,30.25,SE,146,2.3,2.3,93,0.00,OVC,,0.00,WeatherDisplay:10.37,2013-02-16 18:13:00,
2013-02-16 10:18:00,42.6,41.0,30.25,SE,146,2.3,2.3,94,0.00,OVC,,0.00,WeatherDisplay:10.37,2013-02-16 18:18:00,
2013-02-16 10:23:00,42.6,41.0,30.25,SE,146,2.3,2.3,94,0.00,OVC,,0.00,WeatherDisplay:10.37,2013-02-16 18:23:00,
2013-02-16 10:28:00,42.6,41.0,30.25,SSE,159,3.0,3.0,94,0.00,OVC,,0.00,WeatherDisplay:10.37,2013-02-16 18:28:00,
2013-02-16 10:33:00,42.7,41.1,30.25,SSE,159,3.5,3.5,94,0.00,OVC,,0.00,WeatherDisplay:10.37,2013-02-16 18:33:00,
2013-02-16 10:38:00,42.7,41.1,30.25,SSE,159,1.1,1.1,94,0.00,OVC,,0.00,WeatherDisplay:10.37,2013-02-16 18:38:00,
2013-02-16 10:43:00,42.9,41.3,30.25,SSE,159,2.3,2.3,94,0.00,OVC,,0.00,WeatherDisplay:10.37,2013-02-16 18:43:00,
2013-02-16 10:48:00,42.9,41.3,30.25,SSE,159,3.5,3.5,94,0.00,OVC,,0.00,WeatherDisplay:10.37,2013-02-16 18:48:00,
2013-02-16 10:53:00,43.0,41.4,30.25,SSE,159,1.1,1.1,94,0.00,OVC,,0.00,WeatherDisplay:10.37,2013-02-16 18:53:00,
2013-02-16 10:58:00,43.0,41.4,30.25,SSE,150,3.5,3.5,94,0.00,OVC,,0.00,WeatherDisplay:10.37,2013-02-16 18:58:00,
2013-02-16 11:03:00,43.0,41.4,30.25,South,183,3.5,3.5,94,0.00,OVC,,0.00,WeatherDisplay:10.37,2013-02-16 19:03:00,
2013-02-16 11:08:00,42.9,41.3,30.25,South,183,2.3,2.3,94,0.00,OVC,,0.00,WeatherDisplay:10.37,2013-02-16 19:08:00,
2013-02-16 11:13:00,43.0,41.4,30.25,South,180,2.3,2.3,94,0.00,OVC,,0.00,WeatherDisplay:10.37,2013-02-16 19:13:00,
2013-02-16 11:18:00,43.1,41.5,30.25,South,180,2.3,2.3,94,0.00,OVC,,0.00,WeatherDisplay:10.37,2013-02-16 19:18:00,
2013-02-16 11:23:00,43.2,41.6,30.25,South,179,3.5,3.5,94,0.00,OVC,,0.00,WeatherDisplay:10.37,2013-02-16 19:23:00,
2013-02-16 11:28:00,43.2,41.6,30.25,SSE,161,5.0,5.0,94,0.00,OVC,,0.00,WeatherDisplay:10.37,2013-02-16 19:28:00,
2013-02-16 11:33:00,43.1,41.5,30.25,South,171,5.8,5.8,94,0.00,OVC,,0.00,WeatherDisplay:10.37,2013-02-16 19:33:00,
2013-02-16 11:38:00,43.1,41.5,30.25,SSE,162,3.5,3.5,94,0.01,RA,,0.01,WeatherDisplay:10.37,2013-02-16 19:38:00,
2013-02-16 11:43:00,43.1,41.5,30.25,SSE,150,3.5,3.5,94,0.01,RA,,0.01,WeatherDisplay:10.37,2013-02-16 19:43:00,
2013-02-16 11:48:00,43.3,41.7,30.24,South,175,1.1,0.0,94,0.01,OVC,,0.01,WeatherDisplay:10.37,2013-02-16 19:48:00,
2013-02-16 11:53:00,43.6,42.0,30.24,South,182,3.5,3.5,94,0.01,OVC,,0.01,WeatherDisplay:10.37,2013-02-16 19:53:00,
2013-02-16 11:58:00,43.9,42.3,30.24,South,174,3.5,3.5,94,0.01,OVC,,0.01,WeatherDisplay:10.37,2013-02-16 19:58:00,
2013-02-16 12:03:00,44.3,42.7,30.24,SSE,159,6.0,6.0,94,0.01,OVC,,0.01,WeatherDisplay:10.37,2013-02-16 20:03:00,
2013-02-16 12:08:00,44.4,42.8,30.24,South,179,6.9,6.9,94,0.01,OVC,,0.01,WeatherDisplay:10.37,2013-02-16 20:08:00,
2013-02-16 12:13:00,44.2,42.6,30.25,NW,319,5.8,5.8,94,0.01,OVC,,0.01,WeatherDisplay:10.37,2013-02-16 20:13:00,
2013-02-16 12:18:00,43.9,42.3,30.25,NW,305,9.2,9.2,94,0.04,RA,,0.04,WeatherDisplay:10.37,2013-02-16 20:18:00,
2013-02-16 12:23:00,43.4,41.8,30.25,WNW,295,3.5,3.5,94,0.05,RA,,0.05,WeatherDisplay:10.37,2013-02-16 20:23:00,
2013-02-16 12:28:00,43.2,41.3,30.25,NW,307,1.1,0.0,93,0.05,RA,,0.05,WeatherDisplay:10.37,2013-02-16 20:28:00,
2013-02-16 12:33:00,43.0,41.1,30.24,WNW,302,3.5,3.5,93,0.05,OVC,,0.05,WeatherDisplay:10.37,2013-02-16 20:33:00,
2013-02-16 12:38:00,42.9,41.0,30.24,NW,309,4.0,4.0,93,0.04,OVC,,0.05,WeatherDisplay:10.37,2013-02-16 20:38:00,
2013-02-16 12:43:00,42.9,41.0,30.24,NW,319,6.0,6.0,93,0.04,OVC,,0.05,WeatherDisplay:10.37,2013-02-16 20:43:00,
2013-02-16 12:48:00,43.2,41.3,30.24,NW,312,8.1,8.1,93,0.04,OVC,,0.05,WeatherDisplay:10.37,2013-02-16 20:48:00,
2013-02-16 12:53:00,43.5,41.9,30.24,NW,304,3.5,3.5,94,0.04,OVC,,0.05,WeatherDisplay:10.37,2013-02-16 20:53:00,
2013-02-16 12:58:00,43.6,42.0,30.24,NW,309,6.9,6.9,94,0.04,OVC,,0.05,WeatherDisplay:10.37,2013-02-16 20:58:00,
2013-02-16 13:03:00,43.7,41.8,30.23,NW,313,3.5,3.5,93,0.04,OVC,,0.05,WeatherDisplay:10.37,2013-02-16 21:03:00,
2013-02-16 13:08:00,43.8,41.9,30.23,WNW,298,3.5,3.5,93,0.04,OVC,,0.05,WeatherDisplay:10.37,2013-02-16 21:08:00,
2013-02-16 13:13:00,44.2,42.3,30.23,NW,309,3.5,3.5,93,0.04,OVC,,0.05,WeatherDisplay:10.37,2013-02-16 21:13:00,
2013-02-16 13:18:00,44.3,42.4,30.23,WNW,294,3.5,3.5,93,0.02,OVC,,0.05,WeatherDisplay:10.37,2013-02-16 21:18:00,
2013-02-16 13:23:00,44.4,42.5,30.23,NW,306,4.6,4.6,93,0.01,OVC,,0.05,WeatherDisplay:10.37,2013-02-16 21:23:00,
2013-02-16 13:28:00,44.9,43.0,30.23,NW,310,4.6,4.6,93,0.00,OVC,,0.05,WeatherDisplay:10.37,2013-02-16 21:28:00,
2013-02-16 13:33:00,44.9,43.0,30.22,NW,311,5.8,5.8,93,0.00,OVC,,0.05,WeatherDisplay:10.37,2013-02-16 21:33:00,
2013-02-16 13:38:00,45.0,43.1,30.22,West,277,4.6,4.6,93,0.00,OVC,,0.05,WeatherDisplay:10.37,2013-02-16 21:38:00,
2013-02-16 13:43:00,45.0,43.1,30.22,NW,319,5.8,5.8,93,0.00,OVC,,0.05,WeatherDisplay:10.37,2013-02-16 21:43:00,
2013-02-16 13:48:00,44.7,42.5,30.22,NW,324,2.3,2.3,92,0.00,OVC,,0.05,WeatherDisplay:10.37,2013-02-16 21:48:00,
2013-02-16 13:53:00,44.8,42.6,30.22,NW,311,3.5,3.5,92,0.00,OVC,,0.05,WeatherDisplay:10.37,2013-02-16 21:53:00,
2013-02-16 13:58:00,44.7,42.5,30.22,NW,315,3.5,3.5,92,0.00,OVC,,0.05,WeatherDisplay:10.37,2013-02-16 21:58:00,
2013-02-16 14:03:00,44.8,42.6,30.22,WNW,284,3.5,3.5,92,0.00,OVC,,0.05,WeatherDisplay:10.37,2013-02-16 22:03:00,
2013-02-16 14:08:00,45.4,43.2,30.22,NW,324,4.0,4.0,92,0.00,OVC,,0.05,WeatherDisplay:10.37,2013-02-16 22:08:00,
2013-02-16 14:13:00,45.7,42.9,30.22,WNW,303,3.5,3.5,90,0.00,OVC,,0.05,WeatherDisplay:10.37,2013-02-16 22:13:00,
2013-02-16 14:18:00,46.0,43.2,30.22,WNW,297,5.8,5.8,90,0.00,OVC,,0.05,WeatherDisplay:10.37,2013-02-16 22:18:00,
2013-02-16 14:23:00,46.2,42.8,30.22,WNW,286,11.5,11.5,88,0.00,OVC,,0.05,WeatherDisplay:10.37,2013-02-16 22:23:00,
2013-02-16 14:28:00,46.5,42.8,30.21,NW,309,9.2,9.2,87,0.00,OVC,,0.05,WeatherDisplay:10.37,2013-02-16 22:28:00,
2013-02-16 14:33:00,46.7,42.7,30.21,NW,313,9.0,9.0,86,0.00,OVC,,0.05,WeatherDisplay:10.37,2013-02-16 22:33:00,
2013-02-16 14:38:00,46.8,41.9,30.21,NW,315,6.9,6.9,83,0.00,OVC,,0.05,WeatherDisplay:10.37,2013-02-16 22:38:00,
2013-02-16 14:43:00,46.8,41.9,30.21,WNW,292,8.1,8.1,83,0.00,OVC,,0.05,WeatherDisplay:10.37,2013-02-16 22:43:00,
2013-02-16 14:48:00,46.8,41.9,30.21,WNW,285,9.0,9.0,83,0.00,OVC,,0.05,WeatherDisplay:10.37,2013-02-16 22:48:00,
2013-02-16 14:53:00,46.8,41.6,30.22,WNW,300,6.9,6.9,82,0.00,OVC,,0.05,WeatherDisplay:10.37,2013-02-16 22:53:00,
2013-02-16 14:58:00,46.8,41.9,30.21,WNW,297,4.6,4.6,83,0.00,OVC,,0.05,WeatherDisplay:10.37,2013-02-16 22:58:00,
2013-02-16 15:03:00,46.8,41.3,30.22,West,259,9.2,9.2,81,0.00,OVC,,0.05,WeatherDisplay:10.37,2013-02-16 23:03:00,
2013-02-16 15:08:00,46.5,40.7,30.22,WNW,288,9.2,9.2,80,0.00,OVC,,0.05,WeatherDisplay:10.37,2013-02-16 23:08:00,
2013-02-16 15:13:00,46.4,40.9,30.22,NW,319,11.5,11.5,81,0.00,OVC,,0.05,WeatherDisplay:10.37,2013-02-16 23:13:00,
2013-02-16 15:18:00,46.6,40.8,30.22,NW,311,15.0,15.0,80,0.00,OVC,,0.05,WeatherDisplay:10.37,2013-02-16 23:18:00,
2013-02-16 15:23:00,46.7,40.9,30.22,WNW,296,10.4,10.4,80,0.00,OVC,,0.05,WeatherDisplay:10.37,2013-02-16 23:23:00,
2013-02-16 15:28:00,46.9,41.4,30.23,WNW,298,13.0,13.0,81,0.00,OVC,,0.05,WeatherDisplay:10.37,2013-02-16 23:28:00,
2013-02-16 15:33:00,47.0,40.2,30.23,NW,312,11.5,11.5,77,0.00,OVC,,0.05,WeatherDisplay:10.37,2013-02-16 23:33:00,
2013-02-16 15:38:00,47.0,40.5,30.22,WNW,290,13.8,13.8,78,0.00,OVC,,0.05,WeatherDisplay:10.37,2013-02-16 23:38:00,
2013-02-16 15:43:00,47.2,41.0,30.23,NNW,344,7.0,7.0,79,0.00,OVC,,0.05,WeatherDisplay:10.37,2013-02-16 23:43:00,
2013-02-16 15:48:00,47.1,39.9,30.23,NW,310,12.0,12.0,76,0.00,OVC,,0.05,WeatherDisplay:10.37,2013-02-16 23:48:00,
2013-02-16 15:53:00,46.8,39.3,30.22,WNW,291,12.7,12.7,75,0.00,OVC,,0.05,WeatherDisplay:10.37,2013-02-16 23:53:00,
2013-02-16 15:58:00,46.5,39.7,30.22,WNW,298,7.0,7.0,77,0.00,OVC,,0.05,WeatherDisplay:10.37,2013-02-16 23:58:00,
2013-02-16 16:03:00,46.3,39.8,30.23,NW,309,9.0,9.0,78,0.00,OVC,,0.05,WeatherDisplay:10.37,2013-02-17 00:03:00,
2013-02-16 16:08:00,46.3,40.5,30.23,NW,314,10.0,10.0,80,0.00,OVC,,0.05,WeatherDisplay:10.37,2013-02-17 00:08:00,
2013-02-16 16:13:00,46.2,40.0,30.23,WNW,293,8.1,8.1,79,0.00,OVC,,0.05,WeatherDisplay:10.37,2013-02-17 00:13:00,
2013-02-16 16:18:00,46.1,39.6,30.23,WNW,302,5.8,5.8,78,0.00,OVC,,0.05,WeatherDisplay:10.37,2013-02-17 00:18:00,
2013-02-16 16:23:00,46.0,39.5,30.23,WNW,295,9.2,9.2,78,0.00,OVC,,0.05,WeatherDisplay:10.37,2013-02-17 00:23:00,
2013-02-16 16:28:00,45.9,39.4,30.23,WNW,292,11.5,11.5,78,0.00,OVC,,0.05,WeatherDisplay:10.37,2013-02-17 00:28:00,
2013-02-16 16:33:00,45.8,39.3,30.23,WNW,285,10.4,10.4,78,0.00,OVC,,0.05,WeatherDisplay:10.37,2013-02-17 00:33:00,
2013-02-16 16:38:00,45.6,39.1,30.23,NW,304,10.4,10.4,78,0.00,OVC,,0.05,WeatherDisplay:10.37,2013-02-17 00:38:00,
2013-02-16 16:43:00,45.4,39.3,30.23,WNW,299,3.5,3.5,79,0.00,OVC,,0.05,WeatherDisplay:10.37,2013-02-17 00:43:00,
2013-02-16 16:48:00,45.3,39.2,30.23,WNW,300,5.8,5.8,79,0.00,OVC,,0.05,WeatherDisplay:10.37,2013-02-17 00:48:00,
2013-02-16 16:53:00,45.0,38.9,30.23,NW,309,10.4,10.4,79,0.00,OVC,,0.05,WeatherDisplay:10.37,2013-02-17 00:53:00,
2013-02-16 16:58:00,44.9,39.1,30.23,WNW,295,3.5,3.5,80,0.00,OVC,,0.05,WeatherDisplay:10.37,2013-02-17 00:58:00,
2013-02-16 17:03:00,44.6,39.1,30.23,WNW,286,4.6,4.6,81,0.00,OVC,,0.05,WeatherDisplay:10.37,2013-02-17 01:03:00,
2013-02-16 17:08:00,44.3,39.2,30.24,WNW,292,4.6,4.8,82,0.00,OVC,,0.05,WeatherDisplay:10.37,2013-02-17 01:08:00,
2013-02-16 17:13:00,44.0,38.9,30.24,NW,312,12.0,12.0,82,0.00,OVC,,0.05,WeatherDisplay:10.37,2013-02-17 01:13:00,
2013-02-16 17:18:00,43.7,38.9,30.24,NW,309,5.8,5.8,83,0.00,OVC,,0.05,WeatherDisplay:10.37,2013-02-17 01:18:00,
2013-02-16 17:23:00,43.3,38.5,30.24,WNW,294,7.0,7.0,83,0.00,OVC,,0.05,WeatherDisplay:10.37,2013-02-17 01:23:00,
2013-02-16 17:28:00,43.0,38.2,30.24,NW,315,10.0,10.0,83,0.00,OVC,,0.05,WeatherDisplay:10.37,2013-02-17 01:28:00,
2013-02-16 17:33:00,42.7,37.9,30.24,NW,313,11.5,11.5,83,0.00,OVC,,0.05,WeatherDisplay:10.37,2013-02-17 01:33:00,
2013-02-16 17:38:00,42.5,38.0,30.24,NW,304,6.0,6.0,84,0.00,OVC,,0.05,WeatherDisplay:10.37,2013-02-17 01:38:00,
2013-02-16 17:43:00,42.3,38.1,30.24,WNW,303,4.0,4.0,85,0.00,OVC,,0.05,WeatherDisplay:10.37,2013-02-17 01:43:00,
2013-02-16 17:48:00,42.1,37.9,30.24,NW,309,6.0,6.0,85,0.00,OVC,,0.05,WeatherDisplay:10.37,2013-02-17 01:48:00,
2013-02-16 17:53:00,41.9,37.7,30.24,NW,309,4.6,4.6,85,0.00,OVC,,0.05,WeatherDisplay:10.37,2013-02-17 01:53:00,
2013-02-16 17:58:00,41.8,37.3,30.24,NW,304,3.5,3.5,84,0.00,OVC,,0.05,WeatherDisplay:10.37,2013-02-17 01:58:00,
2013-02-16 18:03:00,41.6,37.1,30.24,NW,309,3.5,3.5,84,0.00,OVC,,0.05,WeatherDisplay:10.37,2013-02-17 02:03:00,
2013-02-16 18:08:00,41.3,36.8,30.24,NW,309,5.8,5.8,84,0.00,OVC,,0.05,WeatherDisplay:10.37,2013-02-17 02:08:00,
2013-02-16 18:13:00,41.2,36.7,30.24,NNW,339,1.1,1.1,84,0.00,OVC,,0.05,WeatherDisplay:10.37,2013-02-17 02:13:00,
2013-02-16 18:18:00,41.1,36.6,30.24,WNW,298,3.0,3.0,84,0.00,OVC,,0.05,WeatherDisplay:10.37,2013-02-17 02:18:00,
2013-02-16 18:23:00,40.8,36.3,30.24,NW,311,0.0,0.0,84,0.00,OVC,,0.05,WeatherDisplay:10.37,2013-02-17 02:23:00,
2013-02-16 18:28:00,40.6,36.4,30.25,NW,311,0.0,0.0,85,0.00,OVC,,0.05,WeatherDisplay:10.37,2013-02-17 02:28:00,
2013-02-16 18:33:00,40.4,36.2,30.25,NW,311,2.3,2.3,85,0.00,OVC,,0.05,WeatherDisplay:10.37,2013-02-17 02:33:00,
2013-02-16 18:38:00,40.2,36.3,30.25,NW,311,0.0,0.0,86,0.00,OVC,,0.05,WeatherDisplay:10.37,2013-02-17 02:38:00,
2013-02-16 18:43:00,40.1,36.2,30.25,NW,314,0.0,0.0,86,0.00,OVC,,0.05,WeatherDisplay:10.37,2013-02-17 02:43:00,
2013-02-16 18:48:00,40.0,36.4,30.25,North,355,2.0,2.0,87,0.00,OVC,,0.05,WeatherDisplay:10.37,2013-02-17 02:48:00,
2013-02-16 18:53:00,40.0,36.4,30.25,NW,313,1.1,1.1,87,0.00,OVC,,0.05,WeatherDisplay:10.37,2013-02-17 02:53:00,
2013-02-16 18:58:00,40.0,36.4,30.25,NW,313,2.3,2.3,87,0.00,OVC,,0.05,WeatherDisplay:10.37,2013-02-17 02:58:00,
2013-02-16 19:03:00,40.0,36.4,30.25,NW,315,2.3,2.3,87,0.00,OVC,,0.05,WeatherDisplay:10.37,2013-02-17 03:03:00,
2013-02-16 19:08:00,40.1,36.5,30.25,WNW,300,3.5,3.5,87,0.00,OVC,,0.05,WeatherDisplay:10.37,2013-02-17 03:08:00,
2013-02-16 19:13:00,40.2,36.6,30.26,WNW,292,2.3,2.3,87,0.00,OVC,,0.05,WeatherDisplay:10.37,2013-02-17 03:13:00,
2013-02-16 19:18:00,40.2,36.6,30.26,NW,317,0.0,0.0,87,0.00,OVC,,0.05,WeatherDisplay:10.37,2013-02-17 03:18:00,
2013-02-16 19:23:00,40.2,36.6,30.26,NW,317,1.1,0.0,87,0.00,OVC,,0.05,WeatherDisplay:10.37,2013-02-17 03:23:00,
2013-02-16 19:28:00,40.2,36.6,30.26,NW,325,3.5,3.5,87,0.00,OVC,,0.05,WeatherDisplay:10.37,2013-02-17 03:28:00,
2013-02-16 19:33:00,40.2,36.6,30.26,NW,306,3.5,3.5,87,0.00,OVC,,0.05,WeatherDisplay:10.37,2013-02-17 03:33:00,
2013-02-16 19:38:00,40.3,36.7,30.26,NW,313,4.0,4.0,87,0.00,OVC,,0.05,WeatherDisplay:10.37,2013-02-17 03:38:00,
2013-02-16 19:43:00,40.4,36.8,30.26,NW,304,2.3,2.3,87,0.00,OVC,,0.05,WeatherDisplay:10.37,2013-02-17 03:43:00,
2013-02-16 19:48:00,40.4,36.8,30.26,WNW,300,3.5,3.5,87,0.00,OVC,,0.05,WeatherDisplay:10.37,2013-02-17 03:48:00,
2013-02-16 19:53:00,40.4,36.8,30.26,NW,313,1.1,0.0,87,0.00,OVC,,0.05,WeatherDisplay:10.37,2013-02-17 03:53:00,
2013-02-16 19:58:00,40.4,36.8,30.26,WNW,301,2.3,2.3,87,0.00,OVC,,0.05,WeatherDisplay:10.37,2013-02-17 03:58:00,
2013-02-16 20:03:00,40.4,36.8,30.26,NW,315,3.5,3.5,87,0.00,OVC,,0.05,WeatherDisplay:10.37,2013-02-17 04:03:00,
2013-02-16 20:08:00,40.3,36.7,30.26,NW,310,5.8,5.8,87,0.00,OVC,,0.05,WeatherDisplay:10.37,2013-02-17 04:08:00,
2013-02-16 20:13:00,40.2,36.9,30.26,NW,317,3.5,3.5,88,0.00,OVC,,0.05,WeatherDisplay:10.37,2013-02-17 04:13:00,
2013-02-16 20:18:00,40.2,36.9,30.26,NW,308,3.5,3.5,88,0.00,OVC,,0.05,WeatherDisplay:10.37,2013-02-17 04:18:00,
2013-02-16 20:23:00,40.1,36.8,30.26,NW,313,0.0,0.0,88,0.00,OVC,,0.05,WeatherDisplay:10.37,2013-02-17 04:23:00,
2013-02-16 20:28:00,40.1,36.8,30.26,NW,313,0.0,0.0,88,0.00,OVC,,0.05,WeatherDisplay:10.37,2013-02-17 04:28:00,
2013-02-16 20:33:00,40.0,36.7,30.26,NW,313,0.0,0.0,88,0.00,OVC,,0.05,WeatherDisplay:10.37,2013-02-17 04:33:00,
2013-02-16 20:38:00,40.0,36.7,30.26,NW,313,0.0,0.0,88,0.00,OVC,,0.05,WeatherDisplay:10.37,2013-02-17 04:38:00,
2013-02-16 20:43:00,40.0,37.0,30.26,NW,313,3.5,3.5,89,0.00,OVC,,0.05,WeatherDisplay:10.37,2013-02-17 04:43:00,
2013-02-16 20:48:00,39.9,36.9,30.26,NW,313,2.0,2.0,89,0.00,OVC,,0.05,WeatherDisplay:10.37,2013-02-17 04:48:00,
2013-02-16 20:53:00,39.9,36.9,30.26,WNW,296,3.5,3.5,89,0.00,OVC,,0.05,WeatherDisplay:10.37,2013-02-17 04:53:00,
2013-02-16 20:58:00,39.9,36.9,30.26,WNW,300,1.0,1.0,89,0.00,OVC,,0.05,WeatherDisplay:10.37,2013-02-17 04:58:00,
2013-02-16 21:00:00,39.8,36.8,30.26,NW,309,1.1,1.3,89,0.00,OVC,,0.05,WeatherDisplay:10.37,2013-02-17 05:00:00,
2013-02-16 21:05:00,39.8,36.8,30.26,NW,309,1.1,1.1,89,0.00,OVC,,0.05,WeatherDisplay:10.37,2013-02-17 05:05:00,
2013-02-16 21:10:00,39.8,37.1,30.26,WNW,302,1.1,1.1,90,0.00,OVC,,0.05,WeatherDisplay:10.37,2013-02-17 05:10:00,
2013-02-16 21:15:00,39.7,37.0,30.26,WNW,298,2.3,2.3,90,0.00,OVC,,0.05,WeatherDisplay:10.37,2013-02-17 05:15:00,
2013-02-16 21:20:00,39.6,36.9,30.26,WNW,300,3.5,3.5,90,0.00,OVC,,0.05,WeatherDisplay:10.37,2013-02-17 05:20:00,
2013-02-16 21:25:00,39.5,36.8,30.26,NW,311,3.5,3.5,90,0.00,OVC,,0.05,WeatherDisplay:10.37,2013-02-17 05:25:00,
2013-02-16 21:30:00,39.5,36.8,30.26,NNW,332,0.0,0.0,90,0.00,OVC,,0.05,WeatherDisplay:10.37,2013-02-17 05:30:00,
2013-02-16 21:35:00,39.4,37.0,30.27,NW,320,3.0,3.0,91,0.00,OVC,,0.05,WeatherDisplay:10.37,2013-02-17 05:35:00,
2013-02-16 21:40:00,39.3,36.9,30.27,NW,321,1.1,0.0,91,0.00,OVC,,0.05,WeatherDisplay:10.37,2013-02-17 05:40:00,
2013-02-16 21:45:00,39.2,36.8,30.27,NW,321,0.0,0.0,91,0.00,OVC,,0.05,WeatherDisplay:10.37,2013-02-17 05:45:00,
2013-02-16 21:50:00,39.1,36.7,30.27,NW,321,0.0,0.0,91,0.00,OVC,,0.05,WeatherDisplay:10.37,2013-02-17 05:50:00,
2013-02-16 21:55:00,39.0,36.6,30.27,NW,321,0.0,0.0,91,0.00,OVC,,0.05,WeatherDisplay:10.37,2013-02-17 05:55:00,
2013-02-16 22:00:00,38.9,36.5,30.27,WNW,303,3.5,3.5,91,0.00,OVC,,0.05,WeatherDisplay:10.37,2013-02-17 06:00:00,
2013-02-16 22:05:00,38.8,36.4,30.27,NNW,328,2.3,2.3,91,0.00,OVC,,0.05,WeatherDisplay:10.37,2013-02-17 06:05:00,
2013-02-16 22:10:00,38.7,36.3,30.27,NNW,336,0.0,0.3,91,0.00,OVC,,0.05,WeatherDisplay:10.37,2013-02-17 06:10:00,
2013-02-16 22:15:00,38.5,36.1,30.27,WNW,300,2.3,2.3,91,0.00,OVC,,0.05,WeatherDisplay:10.37,2013-02-17 06:15:00,
2013-02-16 22:20:00,38.4,36.0,30.27,WNW,300,2.3,2.3,91,0.00,OVC,,0.05,WeatherDisplay:10.37,2013-02-17 06:20:00,
2013-02-16 22:25:00,38.4,36.0,30.27,WNW,291,2.3,2.3,91,0.00,OVC,,0.05,WeatherDisplay:10.37,2013-02-17 06:25:00,
2013-02-16 22:30:00,38.4,36.0,30.27,WNW,293,3.5,3.5,91,0.00,OVC,,0.05,WeatherDisplay:10.37,2013-02-17 06:30:00,
2013-02-16 22:35:00,38.4,36.3,30.27,NW,309,3.5,3.5,92,0.00,OVC,,0.05,WeatherDisplay:10.37,2013-02-17 06:35:00,
2013-02-16 22:40:00,38.5,36.4,30.27,NW,309,3.5,3.5,92,0.00,OVC,,0.05,WeatherDisplay:10.37,2013-02-17 06:40:00,
2013-02-16 22:45:00,38.6,36.5,30.27,NW,315,5.8,5.8,92,0.00,OVC,,0.06,WeatherDisplay:10.37,2013-02-17 06:45:00,
2013-02-16 22:50:00,38.7,36.6,30.27,WNW,294,6.9,6.9,92,0.01,RA,,0.06,WeatherDisplay:10.37,2013-02-17 06:50:00,
2013-02-16 22:55:00,38.6,36.5,30.27,WNW,298,12.7,12.7,92,0.01,RA,,0.06,WeatherDisplay:10.37,2013-02-17 06:55:00,
2013-02-16 23:01:00,38.5,36.4,30.27,WNW,294,5.8,5.8,92,0.01,OVC,,0.06,WeatherDisplay:10.37,2013-02-17 07:01:00,
2013-02-16 23:06:00,38.4,36.3,30.27,WNW,302,5.8,5.8,92,0.02,RA,,0.07,WeatherDisplay:10.37,2013-02-17 07:06:00,
2013-02-16 23:11:00,38.2,36.1,30.27,NNE,22,3.5,3.5,92,0.02,RA,,0.07,WeatherDisplay:10.37,2013-02-17 07:11:00,
2013-02-16 23:16:00,38.1,36.0,30.27,WNW,297,2.3,2.3,92,0.02,OVC,,0.07,WeatherDisplay:10.37,2013-02-17 07:16:00,
2013-02-16 23:21:00,37.9,35.8,30.26,NNW,328,1.1,1.1,92,0.02,OVC,,0.07,WeatherDisplay:10.37,2013-02-17 07:21:00,
2013-02-16 23:26:00,37.8,35.7,30.27,WNW,296,3.5,3.5,92,0.02,OVC,,0.07,WeatherDisplay:10.37,2013-02-17 07:26:00,
2013-02-16 23:31:00,37.6,35.5,30.27,NW,317,2.3,2.3,92,0.02,OVC,,0.07,WeatherDisplay:10.37,2013-02-17 07:31:00,
2013-02-16 23:36:00,37.5,35.4,30.27,NW,326,3.5,0.0,92,0.02,OVC,,0.07,WeatherDisplay:10.37,2013-02-17 07:36:00,
2013-02-16 23:41:00,37.4,35.3,30.27,NW,321,0.0,0.3,92,0.02,OVC,,0.07,WeatherDisplay:10.37,2013-02-17 07:41:00,
2013-02-16 23:46:00,37.4,35.3,30.27,NNW,330,3.5,3.5,92,0.02,OVC,,0.07,WeatherDisplay:10.37,2013-02-17 07:46:00,
2013-02-16 23:51:00,37.3,35.2,30.27,NW,315,1.1,1.1,92,0.01,OVC,,0.07,WeatherDisplay:10.37,2013-02-17 07:51:00,
2013-02-16 23:56:00,37.2,35.1,30.27,NW,313,1.1,1.1,92,0.01,OVC,,0.07,WeatherDisplay:10.37,2013-02-17 07:56:00,